Time;durP1;ratioP1;P1;durP2;ratioP2;P2;SDS_P1;SDS_P2;PMS_P1;PMS_P2;Temp;Humidity;BMP_temperature;BMP_pressure;BME280_temperature;BME280_humidity;BME280_pressure;Samples;Min_cycle;Max_cycle;Signal;HPM_P1;HPM_P2
2022/12/07 00:00:55;;;;;;;10.98;2.50;;;2.60;99.90;;;;;;5095361;27;20054;-80
2022/12/07 00:03:21;;;;;;;14.55;3.10;;;2.60;99.90;;;;;;5096989;27;20421;-84
2022/12/07 00:05:47;;;;;;;16.17;3.75;;;2.70;99.90;;;;;;5098770;27;20057;-82
2022/12/07 00:08:12;;;;;;;13.32;3.42;;;2.70;99.90;;;;;;5116571;27;20047;-79
2022/12/07 00:10:38;;;;;;;11.63;3.33;;;2.90;99.90;;;;;;5091984;27;20106;-80
2022/12/07 00:13:04;;;;;;;6.80;2.15;;;3.00;99.90;;;;;;5090327;27;20118;-81
2022/12/07 00:15:29;;;;;;;12.13;2.00;;;3.20;99.90;;;;;;5111237;27;20039;-80
2022/12/07 00:17:55;;;;;;;9.45;2.03;;;3.20;99.90;;;;;;5076021;28;20048;-79
2022/12/07 00:20:20;;;;;;;7.90;2.22;;;3.20;99.90;;;;;;5063620;27;20044;-80
2022/12/07 00:22:46;;;;;;;8.27;2.20;;;3.20;99.90;;;;;;5120770;27;20152;-80
2022/12/07 00:25:12;;;;;;;10.82;2.10;;;3.10;99.90;;;;;;5096669;27;20499;-80
2022/12/07 00:27:37;;;;;;;12.93;2.15;;;3.10;99.90;;;;;;5075015;28;20051;-80
2022/12/07 00:30:03;;;;;;;10.43;2.55;;;3.10;99.90;;;;;;5078689;27;20058;-81
2022/12/07 00:32:29;;;;;;;14.48;2.80;;;3.10;99.90;;;;;;5112355;27;20054;-80
2022/12/07 00:34:55;;;;;;;8.07;2.25;;;3.00;99.90;;;;;;5091708;27;20388;-79
2022/12/07 00:37:20;;;;;;;10.50;2.13;;;3.00;99.90;;;;;;5113262;27;20499;-80
2022/12/07 00:39:46;;;;;;;39.30;3.30;;;3.00;99.90;;;;;;5111747;27;20625;-80
2022/12/07 00:42:12;;;;;;;10.98;2.67;;;3.00;99.90;;;;;;5112028;27;20619;-79
2022/12/07 00:44:38;;;;;;;9.18;2.05;;;2.90;99.90;;;;;;5098336;27;20059;-81
2022/12/07 00:47:04;;;;;;;12.75;2.42;;;2.90;99.90;;;;;;5076410;27;20484;-80
2022/12/07 00:49:29;;;;;;;8.52;2.10;;;2.80;99.90;;;;;;5077761;27;20145;-82
2022/12/07 00:51:55;;;;;;;13.18;2.25;;;2.80;99.90;;;;;;5073798;27;20180;-80
2022/12/07 00:54:20;;;;;;;6.30;2.10;;;2.80;99.90;;;;;;5058540;28;20036;-80
2022/12/07 00:56:46;;;;;;;8.70;1.95;;;2.70;99.90;;;;;;5103581;27;20039;-80
2022/12/07 00:59:16;;;;;;;15.63;2.50;;;2.60;99.90;;;;;;5094082;27;20042;-80
2022/12/07 01:01:42;;;;;;;10.25;2.08;;;2.60;99.90;;;;;;5110541;27;20107;-82
2022/12/07 01:04:07;;;;;;;10.63;2.65;;;2.50;99.90;;;;;;5087207;27;20083;-81
2022/12/07 01:06:33;;;;;;;9.52;1.85;;;2.50;99.90;;;;;;5109137;27;20039;-80
2022/12/07 01:09:00;;;;;;;8.00;2.08;;;2.50;99.90;;;;;;5084466;27;20039;-80
2022/12/07 01:11:28;;;;;;;8.70;1.70;;;2.50;99.90;;;;;;5087588;27;20043;-79
2022/12/07 01:13:56;;;;;;;12.77;2.03;;;2.40;99.90;;;;;;5109754;27;20797;-79
2022/12/07 01:16:23;;;;;;;7.40;1.50;;;2.50;99.90;;;;;;5101764;28;20483;-79
2022/12/07 01:18:52;;;;;;;11.30;2.10;;;2.40;99.90;;;;;;5092574;27;20051;-80
2022/12/07 01:21:37;;;;;;;16.27;3.08;;;2.30;99.90;;;;;;5095687;27;20438;-80
2022/12/07 01:24:06;;;;;;;9.23;1.50;;;2.30;99.90;;;;;;5111095;27;20122;-80
2022/12/07 01:26:31;;;;;;;12.98;1.85;;;2.30;99.90;;;;;;5087130;28;20039;-79
2022/12/07 01:28:58;;;;;;;16.45;2.03;;;2.40;99.90;;;;;;5095142;28;20816;-81
2022/12/07 01:31:26;;;;;;;8.88;1.50;;;2.50;99.90;;;;;;5077953;28;20066;-79
2022/12/07 01:33:54;;;;;;;5.90;1.30;;;2.60;99.90;;;;;;5093805;28;20043;-79
2022/12/07 01:36:23;;;;;;;10.80;2.05;;;2.70;99.90;;;;;;5111215;28;20077;-79
2022/12/07 01:38:52;;;;;;;7.03;1.30;;;2.80;99.90;;;;;;5087624;28;20058;-80
2022/12/07 01:41:19;;;;;;;9.25;1.00;;;2.90;99.90;;;;;;5093994;28;20050;-81
2022/12/07 01:44:24;;;;;;;7.35;1.10;;;3.00;99.90;;;;;;5093818;28;20043;-79
2022/12/07 01:46:55;;;;;;;7.55;0.77;;;3.00;99.90;;;;;;5093359;28;20500;-80
2022/12/07 01:49:37;;;;;;;9.10;0.80;;;2.90;99.90;;;;;;5094349;28;20043;-80
2022/12/07 01:52:23;;;;;;;4.15;0.70;;;2.90;99.90;;;;;;5100359;28;20044;-80
2022/12/07 01:54:56;;;;;;;10.65;1.77;;;2.90;99.90;;;;;;5113266;28;20051;-80
2022/12/07 01:57:22;;;;;;;9.10;0.90;;;3.00;99.90;;;;;;5109357;28;20043;-80
2022/12/07 01:59:51;;;;;;;10.70;1.05;;;3.10;99.90;;;;;;5088748;27;20376;-80
2022/12/07 02:02:39;;;;;;;7.15;1.55;;;3.10;99.90;;;;;;5110662;27;20416;-80
2022/12/07 02:05:06;;;;;;;9.50;1.30;;;3.20;99.90;;;;;;5078443;28;20055;-79
2022/12/07 02:07:36;;;;;;;10.55;0.85;;;3.20;99.90;;;;;;5109473;27;20035;-80
2022/12/07 02:10:20;;;;;;;9.93;1.33;;;3.20;99.90;;;;;;5097138;27;20043;-81
2022/12/07 02:12:53;;;;;;;9.32;1.00;;;3.20;99.90;;;;;;5110753;27;20080;-80
2022/12/07 02:15:21;;;;;;;12.48;1.35;;;3.10;99.90;;;;;;5144734;27;20046;-80
2022/12/07 02:17:54;;;;;;;6.72;1.35;;;3.00;99.90;;;;;;5080352;27;20063;-81
2022/12/07 02:20:51;;;;;;;11.73;1.27;;;3.00;99.90;;;;;;5107546;27;20039;-79
2022/12/07 02:23:29;;;;;;;9.88;1.50;;;2.90;99.90;;;;;;5073917;27;20051;-80
2022/12/07 02:26:13;;;;;;;6.32;1.02;;;2.80;99.90;;;;;;5111634;27;20122;-79
2022/12/07 02:28:54;;;;;;;13.98;2.60;;;2.80;99.90;;;;;;5103071;27;20081;-78
2022/12/07 02:31:23;;;;;;;8.07;1.38;;;2.70;99.90;;;;;;5095117;27;20085;-80
2022/12/07 02:34:07;;;;;;;6.60;1.25;;;2.70;99.90;;;;;;5113542;27;20047;-78
2022/12/07 02:36:41;;;;;;;7.93;1.67;;;2.70;99.90;;;;;;5129053;27;20040;-81
2022/12/07 02:39:18;;;;;;;7.70;1.40;;;2.70;99.90;;;;;;5113198;27;20043;-79
2022/12/07 02:41:48;;;;;;;10.73;1.05;;;2.80;99.90;;;;;;5089714;28;20478;-83
2022/12/07 02:44:18;;;;;;;10.95;1.60;;;2.90;99.90;;;;;;5112422;27;20528;-79
2022/12/07 02:47:12;;;;;;;8.93;1.15;;;3.00;99.90;;;;;;5094362;27;20514;-83
2022/12/07 02:49:39;;;;;;;9.70;1.08;;;3.00;99.90;;;;;;5093139;27;20080;-80
2022/12/07 02:52:05;;;;;;;6.88;0.95;;;3.00;99.90;;;;;;5113198;27;20047;-79
2022/12/07 02:54:31;;;;;;;11.82;1.20;;;3.00;99.90;;;;;;5104897;27;20034;-79
2022/12/07 02:57:02;;;;;;;10.57;1.45;;;3.00;99.90;;;;;;5096812;27;20093;-82
2022/12/07 02:59:53;;;;;;;9.27;1.48;;;2.90;99.90;;;;;;5119234;27;20399;-80
2022/12/07 03:02:43;;;;;;;10.98;1.48;;;3.00;99.90;;;;;;5095759;27;20502;-80
2022/12/07 03:05:29;;;;;;;10.15;1.35;;;3.10;99.90;;;;;;5110887;27;20637;-81
2022/12/07 03:08:13;;;;;;;14.05;1.25;;;3.30;99.90;;;;;;5095196;27;20134;-80
2022/12/07 03:11:09;;;;;;;7.50;1.00;;;3.30;99.90;;;;;;5107788;27;20043;-80
2022/12/07 03:13:58;;;;;;;8.38;1.17;;;3.40;99.90;;;;;;5096580;27;20058;-80
2022/12/07 03:16:40;;;;;;;7.15;0.85;;;3.30;99.90;;;;;;5107152;27;20544;-81
2022/12/07 03:19:19;;;;;;;6.10;0.90;;;3.20;99.90;;;;;;5112908;27;20532;-81
2022/12/07 03:21:51;;;;;;;8.25;1.20;;;3.20;99.90;;;;;;5112799;27;20522;-79
2022/12/07 03:24:23;;;;;;;7.63;1.02;;;3.00;99.90;;;;;;5105867;27;20047;-79
2022/12/07 03:26:53;;;;;;;7.60;1.10;;;3.10;99.90;;;;;;5109191;27;20594;-79
2022/12/07 03:29:36;;;;;;;8.00;1.00;;;3.00;99.90;;;;;;5123970;27;20111;-79
2022/12/07 03:32:08;;;;;;;9.48;1.10;;;3.00;99.90;;;;;;5113998;27;20668;-79
2022/12/07 03:34:44;;;;;;;9.68;1.15;;;2.90;99.90;;;;;;5114253;27;20054;-79
2022/12/07 03:37:20;;;;;;;6.45;0.98;;;2.90;99.90;;;;;;5096376;27;20061;-79
2022/12/07 03:39:56;;;;;;;;;;;3.00;99.90;;;;;;5097225;27;20054;-79
2022/12/07 03:42:22;;;;;;;8.02;1.13;;;3.00;99.90;;;;;;5096316;27;19923;-79
2022/12/07 03:44:48;;;;;;;6.55;1.10;;;3.00;99.90;;;;;;5077064;27;20579;-80
2022/12/07 03:47:41;;;;;;;9.90;1.50;;;3.10;99.90;;;;;;5085256;27;20053;-80
2022/12/07 03:50:14;;;;;;;13.13;1.33;;;3.10;99.90;;;;;;5116087;27;20139;-80
2022/12/07 03:52:49;;;;;;;4.20;0.75;;;3.10;99.90;;;;;;5113594;27;20038;-80
2022/12/07 03:55:25;;;;;;;6.00;0.75;;;3.10;99.90;;;;;;5098483;27;20226;-80
2022/12/07 03:57:55;;;;;;;7.18;1.02;;;3.10;99.90;;;;;;5104838;27;20044;-79
2022/12/07 04:00:21;;;;;;;6.75;1.10;;;3.10;99.90;;;;;;5108962;27;20039;-79
2022/12/07 04:02:47;;;;;;;9.50;2.08;;;3.10;99.90;;;;;;5088278;27;20668;-80
2022/12/07 04:05:13;;;;;;;8.45;1.10;;;3.10;99.90;;;;;;5112592;27;20043;-80
2022/12/07 04:07:38;;;;;;;9.30;1.10;;;3.10;99.90;;;;;;5114242;27;20050;-79
2022/12/07 04:10:05;;;;;;;7.80;1.20;;;3.00;99.90;;;;;;5076853;27;20104;-79
2022/12/07 04:12:30;;;;;;;6.50;1.17;;;3.00;99.90;;;;;;5088139;27;20515;-79
2022/12/07 04:14:56;;;;;;;10.18;1.75;;;2.90;99.90;;;;;;5090689;27;20039;-80
2022/12/07 04:17:21;;;;;;;11.10;1.67;;;2.80;99.90;;;;;;5113046;27;20086;-83
2022/12/07 04:19:47;;;;;;;7.82;1.20;;;2.80;99.90;;;;;;5111070;27;20062;-79
2022/12/07 04:22:13;;;;;;;9.35;1.20;;;2.90;99.90;;;;;;5078619;28;20044;-80
2022/12/07 04:24:38;;;;;;;15.50;1.45;;;2.70;99.90;;;;;;5088518;27;20046;-80
2022/12/07 04:27:04;;;;;;;13.30;1.15;;;2.70;99.90;;;;;;5094493;27;20042;-79
2022/12/07 04:29:30;;;;;;;10.70;1.60;;;2.60;99.90;;;;;;5095240;27;20075;-79
2022/12/07 04:31:56;;;;;;;17.08;1.60;;;2.50;99.90;;;;;;5095048;27;20476;-78
2022/12/07 04:34:21;;;;;;;6.63;1.00;;;2.50;99.90;;;;;;5096123;27;20690;-80
2022/12/07 04:36:47;;;;;;;11.48;1.10;;;2.50;99.90;;;;;;5112080;27;20047;-79
2022/12/07 04:39:25;;;;;;;6.65;0.95;;;2.50;99.90;;;;;;5076965;27;20070;-80
2022/12/07 04:41:51;;;;;;;17.33;1.70;;;2.50;99.90;;;;;;5084182;27;20059;-79
2022/12/07 04:44:18;;;;;;;17.10;1.52;;;2.60;99.90;;;;;;5110965;27;20452;-80
2022/12/07 04:46:45;;;;;;;9.70;1.13;;;2.60;99.90;;;;;;5095341;27;20051;-80
2022/12/07 04:49:12;;;;;;;10.32;1.27;;;2.60;99.90;;;;;;5111359;27;20043;-79
2022/12/07 04:51:37;;;;;;;8.63;1.42;;;2.70;99.90;;;;;;5112485;27;20488;-81
2022/12/07 04:54:03;;;;;;;13.23;1.20;;;2.70;99.90;;;;;;5095603;27;20039;-84
2022/12/07 04:56:29;;;;;;;11.35;1.13;;;2.80;99.90;;;;;;5078381;27;20043;-79
2022/12/07 04:58:55;;;;;;;12.68;1.20;;;2.90;99.90;;;;;;5074422;28;20047;-79
2022/12/07 05:01:22;;;;;;;8.45;1.25;;;2.90;99.90;;;;;;5116484;27;20392;-79
2022/12/07 05:03:48;;;;;;;12.25;1.20;;;2.90;99.90;;;;;;5081314;27;20588;-81
2022/12/07 05:06:14;;;;;;;8.13;1.20;;;3.00;99.90;;;;;;5073917;28;20058;-80
2022/12/07 05:08:40;;;;;;;10.10;1.55;;;3.10;99.90;;;;;;5088886;27;20511;-79
2022/12/07 05:11:06;;;;;;;14.07;1.65;;;3.20;99.90;;;;;;5112275;27;20043;-83
2022/12/07 05:13:32;;;;;;;5.80;1.00;;;3.30;99.90;;;;;;5095523;28;20092;-78
2022/12/07 05:15:58;;;;;;;11.60;1.00;;;3.40;99.90;;;;;;5094059;27;20043;-79
2022/12/07 05:18:24;;;;;;;10.57;1.15;;;3.40;99.90;;;;;;5096382;27;20031;-79
2022/12/07 05:20:51;;;;;;;7.80;1.10;;;3.50;99.90;;;;;;5112909;27;20039;-79
2022/12/07 05:23:18;;;;;;;10.65;1.00;;;3.40;99.90;;;;;;5107173;27;20043;-80
2022/12/07 05:25:44;;;;;;;10.80;1.40;;;3.40;99.90;;;;;;5123346;27;20081;-80
2022/12/07 05:28:10;;;;;;;8.38;1.27;;;3.30;99.90;;;;;;5122958;27;20039;-83
2022/12/07 05:30:36;;;;;;;13.25;1.42;;;3.40;99.90;;;;;;5096566;28;20103;-79
2022/12/07 05:33:02;;;;;;;12.40;1.00;;;3.30;99.90;;;;;;5077860;28;20413;-79
2022/12/07 05:35:29;;;;;;;6.50;1.27;;;3.20;99.90;;;;;;5105818;27;20054;-80
2022/12/07 05:37:55;;;;;;;11.25;1.50;;;3.10;99.90;;;;;;5108271;28;20043;-79
2022/12/07 05:40:21;;;;;;;8.90;1.60;;;3.00;99.90;;;;;;5110523;28;20182;-79
2022/12/07 05:42:47;;;;;;;11.90;1.88;;;2.90;99.90;;;;;;5094364;27;20051;-79
2022/12/07 05:45:12;;;;;;;12.30;1.40;;;2.80;99.90;;;;;;5114994;27;20055;-83
2022/12/07 05:47:38;;;;;;;12.43;1.50;;;2.80;99.90;;;;;;5118120;27;20421;-80
2022/12/07 05:50:06;;;;;;;10.82;1.35;;;2.70;99.90;;;;;;5116913;27;20041;-79
2022/12/07 05:52:31;;;;;;;4.68;1.30;;;2.60;99.90;;;;;;5079437;27;20059;-80
2022/12/07 05:54:57;;;;;;;11.57;1.05;;;2.60;99.90;;;;;;5145611;27;20092;-81
2022/12/07 05:57:23;;;;;;;10.63;1.10;;;2.40;99.90;;;;;;5096752;27;20069;-81
2022/12/07 05:59:48;;;;;;;7.72;1.20;;;2.50;99.90;;;;;;5083007;27;20112;-79
2022/12/07 06:02:16;;;;;;;13.73;1.38;;;2.30;99.90;;;;;;5114024;27;20039;-84
2022/12/07 06:04:44;;;;;;;17.65;1.17;;;2.40;99.90;;;;;;5117869;27;20463;-79
2022/12/07 06:07:12;;;;;;;9.57;1.38;;;2.30;99.90;;;;;;5111803;27;20101;-80
2022/12/07 06:09:38;;;;;;;17.30;1.10;;;2.20;99.90;;;;;;5118003;27;20034;-80
2022/12/07 06:14:48;;;;;;;10.30;1.13;;;2.20;99.90;;;;;;5087889;27;20134;-76
2022/12/07 06:17:14;;;;;;;10.40;1.70;;;2.10;99.90;;;;;;5102292;27;20119;-77
2022/12/07 06:19:40;;;;;;;9.82;1.20;;;2.10;99.90;;;;;;5095335;27;20525;-77
2022/12/07 06:22:07;;;;;;;13.43;1.50;;;2.10;99.90;;;;;;5126710;27;20165;-78
2022/12/07 06:24:33;;;;;;;12.27;1.50;;;2.10;99.90;;;;;;5097382;27;20807;-80
2022/12/07 06:26:59;;;;;;;9.38;1.33;;;2.00;99.90;;;;;;5093486;27;20075;-77
2022/12/07 06:29:25;;;;;;;9.75;1.30;;;2.00;99.90;;;;;;5096978;27;20123;-78
2022/12/07 06:31:51;;;;;;;12.35;1.80;;;2.00;99.90;;;;;;5082380;27;20035;-78
2022/12/07 06:34:19;;;;;;;15.07;1.42;;;1.90;99.90;;;;;;5113253;27;20468;-78
2022/12/07 06:36:47;;;;;;;11.35;1.60;;;1.90;99.90;;;;;;5114180;27;20050;-77
2022/12/07 06:39:13;;;;;;;24.83;5.30;;;1.90;99.90;;;;;;5094644;27;20054;-81
2022/12/07 06:41:39;;;;;;;14.45;2.15;;;1.90;99.90;;;;;;5075011;27;20484;-78
2022/12/07 06:44:06;;;;;;;24.83;5.93;;;2.00;99.90;;;;;;5113533;27;20043;-80
2022/12/07 06:46:32;;;;;;;15.60;5.35;;;2.00;99.90;;;;;;5088078;27;20143;-75
2022/12/07 06:48:58;;;;;;;20.98;5.60;;;2.10;99.90;;;;;;5105976;27;20387;-80
2022/12/07 06:51:24;;;;;;;19.02;3.60;;;2.20;99.90;;;;;;5107256;27;20043;-77
2022/12/07 06:53:50;;;;;;;14.55;3.38;;;2.40;99.90;;;;;;5089822;27;20036;-78
2022/12/07 06:56:15;;;;;;;15.45;5.68;;;2.40;99.90;;;;;;5079552;27;20380;-79
2022/12/07 06:58:41;;;;;;;13.88;4.15;;;2.50;99.90;;;;;;5095926;27;20087;-78
2022/12/07 07:01:13;;;;;;;14.27;3.90;;;2.60;99.90;;;;;;5108349;27;20058;-80
2022/12/07 07:03:39;;;;;;;13.45;3.60;;;2.60;99.90;;;;;;5114368;27;20042;-80
2022/12/07 07:06:06;;;;;;;15.23;3.40;;;2.60;99.90;;;;;;5110027;28;20051;-80
2022/12/07 07:08:31;;;;;;;15.00;2.70;;;2.60;99.90;;;;;;5094979;27;20138;-80
2022/12/07 07:10:57;;;;;;;14.38;2.60;;;2.60;99.90;;;;;;5113710;27;20131;-83
2022/12/07 07:13:26;;;;;;;15.02;3.20;;;2.60;99.90;;;;;;5085473;27;20035;-80
2022/12/07 07:15:51;;;;;;;9.60;1.73;;;2.60;99.90;;;;;;5071833;27;20118;-82
2022/12/07 07:18:17;;;;;;;12.57;2.15;;;2.50;99.90;;;;;;5090959;27;20122;-83
2022/12/07 07:20:43;;;;;;;10.45;2.30;;;2.40;99.90;;;;;;5077187;28;20066;-84
2022/12/07 07:23:08;;;;;;;14.50;1.63;;;2.40;99.90;;;;;;5094826;27;20492;-83
2022/12/07 07:25:34;;;;;;;15.60;2.17;;;2.30;99.90;;;;;;5094790;27;20039;-82
2022/12/07 07:28:00;;;;;;;14.23;2.58;;;2.30;99.90;;;;;;5111551;27;20126;-83
2022/12/07 07:30:26;;;;;;;9.52;2.03;;;2.20;99.90;;;;;;5111960;27;20050;-83
2022/12/07 07:32:57;;;;;;;15.27;2.67;;;2.20;99.90;;;;;;5095303;27;20123;-82
2022/12/07 07:35:23;;;;;;;11.65;2.15;;;2.20;99.90;;;;;;5110681;27;20050;-83
2022/12/07 07:37:49;;;;;;;11.85;3.10;;;2.30;99.90;;;;;;5112275;27;20047;-83
2022/12/07 07:40:14;;;;;;;16.25;4.55;;;2.40;99.90;;;;;;5077832;27;20166;-82
2022/12/07 07:42:40;;;;;;;18.65;6.13;;;2.50;99.90;;;;;;5111565;27;20051;-82
2022/12/07 07:45:06;;;;;;;26.48;8.98;;;2.60;99.90;;;;;;5110821;27;20047;-83
2022/12/07 07:47:32;;;;;;;13.07;3.20;;;2.50;99.90;;;;;;5087190;27;20131;-83
2022/12/07 07:49:57;;;;;;;14.35;4.47;;;2.50;99.90;;;;;;5108174;27;20039;-82
2022/12/07 07:52:23;;;;;;;10.15;1.70;;;2.40;99.90;;;;;;5068817;27;20129;-83
2022/12/07 07:54:49;;;;;;;11.57;1.90;;;2.50;99.90;;;;;;5092796;27;20096;-83
2022/12/07 07:57:16;;;;;;;11.82;2.00;;;2.40;99.90;;;;;;5071807;27;20120;-84
2022/12/07 07:59:42;;;;;;;8.35;2.42;;;2.30;99.90;;;;;;5106216;27;20040;-83
2022/12/07 08:02:14;;;;;;;8.10;1.85;;;2.20;99.90;;;;;;5080859;27;20043;-82
2022/12/07 08:04:40;;;;;;;19.50;9.32;;;2.10;99.90;;;;;;5106412;27;20054;-84
2022/12/07 08:07:05;;;;;;;23.45;11.05;;;2.10;99.90;;;;;;5087310;27;20046;-83
2022/12/07 08:09:31;;;;;;;23.17;7.40;;;2.00;99.90;;;;;;5107247;27;20075;-84
2022/12/07 08:11:57;;;;;;;13.20;4.40;;;2.00;99.90;;;;;;5076882;27;20112;-84
2022/12/07 08:14:24;;;;;;;14.05;2.65;;;2.00;99.90;;;;;;5075542;28;20043;-84
2022/12/07 08:16:50;;;;;;;15.25;5.35;;;2.00;99.90;;;;;;5073518;27;20126;-82
2022/12/07 08:19:15;;;;;;;18.90;7.93;;;1.90;99.90;;;;;;5107822;27;20126;-83
2022/12/07 08:21:41;;;;;;;17.45;7.47;;;1.90;99.90;;;;;;5074156;27;20047;-83
2022/12/07 08:24:07;;;;;;;16.83;4.95;;;1.90;99.90;;;;;;5087537;28;20051;-83
2022/12/07 08:26:33;;;;;;;15.75;3.92;;;1.90;99.90;;;;;;5105619;27;20126;-86
2022/12/07 08:28:59;;;;;;;11.60;3.83;;;1.90;99.90;;;;;;5107237;28;20071;-82
2022/12/07 08:31:25;;;;;;;21.00;7.90;;;1.90;99.90;;;;;;5107317;27;20063;-83
2022/12/07 08:33:51;;;;;;;16.13;6.43;;;2.00;99.90;;;;;;5094637;27;20060;-82
2022/12/07 08:36:17;;;;;;;20.73;10.13;;;2.00;99.90;;;;;;5112387;27;20442;-83
2022/12/07 08:38:43;;;;;;;24.08;14.10;;;2.20;99.90;;;;;;5094411;27;20043;-82
2022/12/07 08:41:09;;;;;;;14.10;3.22;;;2.40;99.90;;;;;;5106796;28;20392;-83
2022/12/07 08:43:35;;;;;;;11.60;4.05;;;2.60;99.90;;;;;;5106333;27;20476;-86
2022/12/07 08:46:21;;;;;;;17.33;3.20;;;2.70;99.90;;;;;;5094297;27;20047;-82
2022/12/07 08:48:52;;;;;;;15.52;3.08;;;2.80;99.90;;;;;;5110161;27;20094;-82
2022/12/07 08:51:19;;;;;;;16.63;2.10;;;2.90;99.90;;;;;;5093938;27;20131;-83
2022/12/07 08:53:45;;;;;;;9.23;2.05;;;2.90;99.90;;;;;;5094314;27;20099;-83
2022/12/07 08:56:12;;;;;;;9.15;3.08;;;2.90;99.90;;;;;;5111792;27;20042;-83
2022/12/07 08:58:38;;;;;;;12.60;3.63;;;2.80;99.90;;;;;;5077684;27;20130;-85
2022/12/07 09:01:04;;;;;;;12.85;2.00;;;2.80;99.90;;;;;;5076056;27;20063;-84
2022/12/07 09:03:30;;;;;;;14.38;1.73;;;2.70;99.90;;;;;;5077393;27;20046;-83
2022/12/07 09:05:57;;;;;;;10.85;1.60;;;2.70;99.90;;;;;;5070877;27;20157;-83
2022/12/07 09:08:26;;;;;;;13.18;2.08;;;2.70;99.90;;;;;;5112240;27;20160;-82
2022/12/07 09:10:52;;;;;;;12.63;2.88;;;2.70;99.90;;;;;;5110865;27;20043;-82
2022/12/07 09:13:17;;;;;;;10.73;2.17;;;2.80;99.90;;;;;;5110806;27;20057;-83
2022/12/07 09:15:43;;;;;;;13.05;2.55;;;2.90;99.90;;;;;;5069600;27;20051;-84
2022/12/07 09:18:08;;;;;;;12.65;3.72;;;3.00;99.90;;;;;;5108041;27;20039;-83
2022/12/07 09:20:37;;;;;;;13.65;1.83;;;3.20;99.90;;;;;;5078082;27;20061;-87
2022/12/07 09:23:04;;;;;;;7.68;3.35;;;3.30;99.90;;;;;;5117783;27;20138;-82
2022/12/07 09:25:30;;;;;;;15.25;3.70;;;3.20;99.90;;;;;;5106124;28;20373;-83
2022/12/07 09:27:57;;;;;;;7.78;1.83;;;3.10;99.90;;;;;;5092948;28;20061;-82
2022/12/07 09:30:23;;;;;;;16.65;6.25;;;3.00;99.90;;;;;;5094137;28;20559;-83
2022/12/07 09:32:49;;;;;;;22.33;9.07;;;2.90;99.90;;;;;;5075560;28;20482;-82
2022/12/07 09:35:14;;;;;;;15.63;4.10;;;2.90;99.90;;;;;;5088071;28;20120;-82
2022/12/07 09:37:40;;;;;;;18.30;4.07;;;3.00;99.90;;;;;;5092081;28;20047;-84
2022/12/07 09:40:06;;;;;;;21.70;5.82;;;3.00;99.90;;;;;;5076887;28;20081;-83
2022/12/07 09:42:44;;;;;;;16.60;5.90;;;3.30;99.90;;;;;;5093651;28;20886;-83
2022/12/07 09:45:19;;;;;;;14.60;5.10;;;3.40;99.90;;;;;;5094862;28;20130;-82
2022/12/07 09:47:45;;;;;;;9.38;4.10;;;3.60;99.90;;;;;;5093674;28;20089;-82
2022/12/07 09:50:16;;;;;;;8.23;2.20;;;3.80;99.90;;;;;;5108214;28;20046;-83
2022/12/07 09:52:45;;;;;;;10.35;2.25;;;3.80;99.90;;;;;;5091829;28;20555;-85
2022/12/07 09:55:13;;;;;;;15.35;2.30;;;3.80;99.90;;;;;;5088772;28;20046;-83
2022/12/07 09:57:39;;;;;;;10.73;1.90;;;3.80;99.90;;;;;;5110417;28;20123;-84
2022/12/07 10:00:12;;;;;;;12.18;2.22;;;3.90;99.90;;;;;;5110099;28;20047;-84
2022/12/07 10:02:43;;;;;;;15.38;3.15;;;3.90;99.90;;;;;;5091631;28;20046;-83
2022/12/07 10:05:19;;;;;;;12.30;3.08;;;3.90;99.90;;;;;;5092327;28;20126;-83
2022/12/07 10:07:45;;;;;;;11.15;2.15;;;3.90;99.90;;;;;;5108781;28;20446;-84
2022/12/07 10:10:17;;;;;;;9.93;1.92;;;3.90;99.90;;;;;;5093549;28;20142;-82
2022/12/07 10:13:09;;;;;;;11.75;2.25;;;4.00;99.90;;;;;;5109462;28;20146;-84
2022/12/07 10:15:55;;;;;;;7.85;1.63;;;3.90;99.90;;;;;;5108798;28;20043;-84
2022/12/07 10:18:36;;;;;;;10.68;1.52;;;3.80;99.90;;;;;;5119488;28;20043;-84
2022/12/07 10:21:11;;;;;;;9.40;1.60;;;3.80;99.90;;;;;;5089333;28;20047;-84
2022/12/07 10:23:38;;;;;;;11.60;1.83;;;3.90;99.90;;;;;;5104321;28;20046;-85
2022/12/07 10:26:24;;;;;;;6.25;1.30;;;3.90;99.90;;;;;;5080943;28;20124;-85
2022/12/07 10:28:50;;;;;;;7.87;2.37;;;4.00;99.90;;;;;;5105536;27;20411;-82
2022/12/07 10:31:21;;;;;;;8.43;1.98;;;4.10;99.90;;;;;;5114278;27;20079;-83
2022/12/07 10:33:57;;;;;;;10.30;3.40;;;4.10;99.90;;;;;;5096262;27;20123;-83
2022/12/07 10:36:32;;;;;;;12.50;2.40;;;4.00;99.90;;;;;;5113506;27;20097;-83
2022/12/07 10:39:13;;;;;;;11.38;2.50;;;4.00;99.90;;;;;;5096081;27;20061;-83
2022/12/07 10:41:52;;;;;;;18.70;8.65;;;3.90;99.90;;;;;;5113831;27;20499;-83
2022/12/07 10:44:23;;;;;;;21.45;8.48;;;3.90;99.90;;;;;;5113285;27;20051;-83
2022/12/07 10:47:02;;;;;;;11.43;4.78;;;4.10;99.90;;;;;;5095904;27;20051;-84
2022/12/07 10:49:55;;;;;;;15.23;4.60;;;4.10;99.90;;;;;;5093954;27;20039;-83
2022/12/07 10:52:23;;;;;;;15.55;3.17;;;4.10;99.90;;;;;;5142563;27;20043;-83
2022/12/07 10:54:58;;;;;;;13.82;3.33;;;4.10;99.90;;;;;;5110924;27;20130;-84
2022/12/07 10:58:00;;;;;;;16.10;5.20;;;4.10;99.90;;;;;;5088655;27;20047;-84
2022/12/07 11:00:31;;;;;;;9.85;4.60;;;4.10;99.90;;;;;;5090586;27;20061;-82
2022/12/07 11:03:15;;;;;;;18.52;6.43;;;4.10;99.90;;;;;;5087734;27;20039;-82
2022/12/07 11:06:04;;;;;;;14.93;3.63;;;4.10;99.90;;;;;;5118897;27;20745;-82
2022/12/07 11:09:00;;;;;;;13.45;4.32;;;4.10;99.90;;;;;;5091170;27;20165;-83
2022/12/07 11:11:42;;;;;;;11.63;3.38;;;4.30;99.90;;;;;;5140876;27;20152;-83
2022/12/07 11:14:29;;;;;;;11.80;2.97;;;4.50;99.90;;;;;;5103041;27;20043;-83
2022/12/07 11:17:14;;;;;;;7.97;2.38;;;4.50;99.90;;;;;;5090956;28;20576;-85
2022/12/07 11:19:59;;;;;;;7.28;1.92;;;4.50;99.90;;;;;;5109094;27;20046;-84
2022/12/07 11:22:46;;;;;;;14.20;3.15;;;4.50;99.90;;;;;;5097176;27;20047;-83
2022/12/07 11:25:32;;;;;;;9.38;2.55;;;4.60;99.90;;;;;;5093647;27;20536;-83
2022/12/07 11:28:12;;;;;;;12.15;3.50;;;4.70;99.90;;;;;;5110286;27;20054;-85
2022/12/07 11:30:58;;;;;;;9.18;1.92;;;4.70;99.90;;;;;;5089952;27;20051;-83
2022/12/07 11:33:29;;;;;;;14.63;4.82;;;4.60;99.90;;;;;;5102133;27;20400;-83
2022/12/07 11:36:04;;;;;;;12.68;4.45;;;4.70;99.90;;;;;;5110246;27;20165;-84
2022/12/07 11:38:47;;;;;;;11.57;4.43;;;4.70;99.90;;;;;;5095890;27;20488;-83
2022/12/07 11:41:15;;;;;;;24.48;5.65;;;4.80;99.90;;;;;;5108720;27;20039;-83
2022/12/07 11:44:00;;;;;;;8.27;1.40;;;5.00;99.90;;;;;;5089021;27;20054;-83
2022/12/07 11:46:37;;;;;;;18.10;7.28;;;5.20;99.90;;;;;;5113437;27;20396;-83
2022/12/07 11:49:13;;;;;;;10.25;1.40;;;5.20;99.90;;;;;;5092155;27;20043;-83
2022/12/07 11:51:40;;;;;;;2.88;1.00;;;5.20;99.90;;;;;;5107637;27;20058;-84
2022/12/07 11:54:36;;;;;;;7.22;1.70;;;5.10;99.90;;;;;;5108278;27;20085;-84
2022/12/07 11:57:16;;;;;;;13.02;5.50;;;5.00;99.90;;;;;;5108415;27;20134;-86
2022/12/07 11:59:49;;;;;;;5.25;1.55;;;5.00;99.90;;;;;;5088034;27;20043;-84
2022/12/07 12:02:35;;;;;;;5.10;2.30;;;5.00;99.90;;;;;;5120297;27;20472;-84
2022/12/07 12:05:17;;;;;;;5.65;1.33;;;5.00;99.90;;;;;;5105469;27;20043;-84
2022/12/07 12:07:46;;;;;;;6.13;0.90;;;5.00;99.90;;;;;;5104654;27;20417;-84
2022/12/07 12:10:20;;;;;;;2.72;0.70;;;5.00;99.90;;;;;;5107195;27;20443;-85
2022/12/07 12:12:56;;;;;;;7.75;3.28;;;5.00;99.90;;;;;;5108537;27;20057;-83
2022/12/07 12:15:31;;;;;;;;;;;4.90;99.90;;;;;;5084494;27;20054;-84
2022/12/07 12:18:39;;;;;;;13.63;3.17;;;4.90;99.90;;;;;;5092098;27;19924;-83
2022/12/07 12:21:09;;;;;;;8.38;1.67;;;5.00;99.90;;;;;;5106929;27;20035;-84
2022/12/07 12:23:45;;;;;;;11.05;1.75;;;5.10;99.90;;;;;;5106447;27;20043;-84
2022/12/07 12:26:23;;;;;;;8.20;1.98;;;5.20;99.90;;;;;;5105980;27;20067;-83
2022/12/07 12:29:19;;;;;;;13.13;1.70;;;5.20;99.90;;;;;;5110923;27;20051;-82
2022/12/07 12:32:04;;;;;;;9.25;2.15;;;5.20;99.90;;;;;;5106229;27;20088;-83
2022/12/07 12:34:49;;;;;;;10.47;1.90;;;5.20;99.90;;;;;;5104935;27;20473;-83
2022/12/07 12:37:33;;;;;;;6.97;1.70;;;5.20;99.90;;;;;;5115438;27;20046;-85
2022/12/07 12:40:15;;;;;;;7.40;1.70;;;5.20;99.90;;;;;;5106527;27;20448;-83
2022/12/07 12:42:59;;;;;;;7.70;2.13;;;5.20;99.90;;;;;;5090464;28;20059;-83
2022/12/07 12:45:29;;;;;;;6.38;1.60;;;5.10;99.90;;;;;;5100635;27;20144;-83
2022/12/07 12:48:03;;;;;;;6.88;1.58;;;5.10;99.90;;;;;;5105063;27;20062;-83
2022/12/07 12:50:37;;;;;;;6.82;1.73;;;5.00;99.90;;;;;;5082554;27;20057;-84
2022/12/07 12:53:24;;;;;;;16.25;4.68;;;5.00;99.90;;;;;;5105613;27;20042;-83
2022/12/07 12:56:20;;;;;;;8.80;1.65;;;5.00;99.90;;;;;;5091006;27;20436;-84
2022/12/07 12:58:48;;;;;;;8.13;1.73;;;5.00;99.90;;;;;;5093623;27;20069;-84
2022/12/07 13:01:38;;;;;;;9.85;1.48;;;5.00;99.90;;;;;;5122115;27;20054;-86
2022/12/07 13:04:21;;;;;;;7.75;1.02;;;5.00;99.90;;;;;;5087033;27;20047;-84
2022/12/07 13:06:47;;;;;;;5.03;1.38;;;5.10;99.90;;;;;;5103306;27;20559;-83
2022/12/07 13:09:21;;;;;;;5.68;1.20;;;5.20;99.90;;;;;;5069234;27;20047;-83
2022/12/07 13:11:48;;;;;;;6.40;0.90;;;5.10;99.90;;;;;;5106350;27;20054;-84
2022/12/07 13:14:51;;;;;;;4.07;1.23;;;5.00;99.90;;;;;;5089300;27;20150;-84